createdAt,value
2022-11-02T00:01:29.940Z,82.28
2022-11-02T00:03:56.742Z,82.01
2022-11-02T00:06:23.373Z,82.46
2022-11-02T00:08:50.021Z,82.15
2022-11-02T00:11:16.658Z,82.08
2022-11-02T00:13:43.333Z,82.12
2022-11-02T00:16:12.034Z,82.35
2022-11-02T00:18:39.272Z,82.18
2022-11-02T00:21:06.047Z,82.32
2022-11-02T00:23:32.720Z,82.68
2022-11-02T00:26:02.480Z,82.66
2022-11-02T00:28:30.579Z,82.73
2022-11-02T00:30:58.023Z,83.04
2022-11-02T00:33:26.294Z,82.75
2022-11-02T00:35:54.245Z,82.84
2022-11-02T00:38:20.961Z,82.58
2022-11-02T00:40:47.651Z,82.75
2022-11-02T00:43:14.435Z,82.88
2022-11-02T00:45:41.092Z,82.83
2022-11-02T00:48:07.887Z,82.71
2022-11-02T00:50:34.771Z,82.51
2022-11-02T00:53:01.642Z,82.73
2022-11-02T00:55:28.469Z,82.73
2022-11-02T00:58:00.118Z,82.89
2022-11-02T01:00:27.002Z,82.78
2022-11-02T01:02:53.643Z,82.71
2022-11-02T01:05:20.334Z,82.92
2022-11-02T01:07:47.869Z,82.53
2022-11-02T01:10:17.124Z,82.42
2022-11-02T01:12:43.790Z,82.47
2022-11-02T01:15:10.932Z,82.52
2022-11-02T01:17:38.286Z,82.54
2022-11-02T01:20:06.146Z,82.78
2022-11-02T01:22:32.862Z,82.74
2022-11-02T01:24:59.537Z,82.37
2022-11-02T01:27:26.539Z,82.74
2022-11-02T01:29:53.274Z,82.49
2022-11-02T01:32:20.013Z,82.41
2022-11-02T01:34:46.692Z,82.64
2022-11-02T01:37:15.335Z,82.50
2022-11-02T01:39:42.003Z,82.74
2022-11-02T01:42:28.201Z,82.70
2022-11-02T01:44:56.395Z,82.83
2022-11-02T01:47:29.492Z,82.64
2022-11-02T01:50:03.228Z,82.39
2022-11-02T01:52:34.697Z,82.63
2022-11-02T01:55:07.094Z,82.58
2022-11-02T01:57:35.618Z,82.52
2022-11-02T02:00:08.116Z,82.51
2022-11-02T02:03:03.865Z,82.38
2022-11-02T02:05:33.662Z,82.62
2022-11-02T02:08:02.435Z,82.75
2022-11-02T02:10:30.892Z,82.58
2022-11-02T02:12:57.559Z,82.63
2022-11-02T02:15:25.806Z,82.39
2022-11-02T02:17:58.446Z,82.36
2022-11-02T02:20:40.040Z,82.57
2022-11-02T02:23:26.624Z,82.43
2022-11-02T02:26:15.239Z,82.39
2022-11-02T02:28:47.549Z,82.44
2022-11-02T02:31:36.488Z,82.52
2022-11-02T02:34:12.603Z,82.06
2022-11-02T02:36:51.762Z,82.13
2022-11-02T02:39:33.529Z,82.17
2022-11-02T02:42:13.922Z,82.18
2022-11-02T02:44:43.583Z,82.03
2022-11-02T02:47:18.894Z,82.05
2022-11-02T02:49:50.311Z,82.10
2022-11-02T02:52:18.521Z,81.86
2022-11-02T02:54:46.754Z,82.07
2022-11-02T02:57:15.359Z,81.84
2022-11-02T02:59:43.874Z,81.80
2022-11-02T03:02:14.357Z,82.05
2022-11-02T03:04:41.154Z,81.75
2022-11-02T03:07:10.267Z,81.53
2022-11-02T03:09:41.649Z,81.55
2022-11-02T03:12:46.952Z,81.85
2022-11-02T03:15:28.688Z,81.70
2022-11-02T03:18:16.956Z,81.49
2022-11-02T03:21:16.860Z,81.88
2022-11-02T03:24:22.509Z,81.76
2022-11-02T03:27:28.082Z,81.87
2022-11-02T03:30:01.135Z,81.66
2022-11-02T03:32:39.276Z,81.48
2022-11-02T03:35:15.702Z,81.42
2022-11-02T03:37:48.637Z,81.44
2022-11-02T03:40:20.388Z,81.43
2022-11-02T03:42:49.003Z,81.54
2022-11-02T03:45:19.054Z,81.59
2022-11-02T03:47:50.338Z,81.48
2022-11-02T03:50:20.812Z,81.46
2022-11-02T03:52:52.095Z,81.29
2022-11-02T03:55:20.733Z,81.16
2022-11-02T03:57:50.192Z,81.35
2022-11-02T04:00:22.339Z,81.41
2022-11-02T04:02:58.987Z,80.95
2022-11-02T04:05:35.013Z,81.17
2022-11-02T04:08:21.595Z,80.90
2022-11-02T04:11:12.415Z,80.86
2022-11-02T04:13:59.525Z,81.09
2022-11-02T04:16:29.666Z,81.27
2022-11-02T04:19:17.834Z,81.02
2022-11-02T04:22:05.426Z,81.07
2022-11-02T04:24:53.238Z,81.08
2022-11-02T04:27:21.320Z,81.02
2022-11-02T04:29:49.468Z,80.72
2022-11-02T04:32:37.415Z,80.71
2022-11-02T04:35:06.743Z,80.76
2022-11-02T04:37:59.793Z,80.60
2022-11-02T04:40:28.902Z,80.64
2022-11-02T04:42:56.230Z,80.72
2022-11-02T04:45:22.962Z,80.75
2022-11-02T04:47:49.786Z,80.65
2022-11-02T04:50:17.467Z,80.76
2022-11-02T04:53:01.045Z,80.58
2022-11-02T04:55:36.395Z,80.29
2022-11-02T04:58:15.191Z,80.63
2022-11-02T05:00:45.065Z,80.57
2022-11-02T05:03:12.999Z,80.56
2022-11-02T05:05:41.392Z,80.47
2022-11-02T05:08:08.190Z,80.58
2022-11-02T05:10:36.804Z,80.57
2022-11-02T05:13:04.758Z,80.63
2022-11-02T05:15:34.406Z,80.79
2022-11-02T05:18:05.085Z,80.60
2022-11-02T05:20:33.328Z,80.52
2022-11-02T05:23:00.120Z,80.60
2022-11-02T05:25:26.865Z,80.38
2022-11-02T05:27:57.183Z,80.50
2022-11-02T05:30:24.304Z,80.45
2022-11-02T05:32:56.021Z,80.32
2022-11-02T05:35:22.754Z,80.50
2022-11-02T05:37:55.516Z,80.39
2022-11-02T05:40:29.416Z,80.25
2022-11-02T05:43:00.988Z,80.40
2022-11-02T05:45:28.340Z,80.25
2022-11-02T05:47:56.123Z,80.15
2022-11-02T05:50:23.110Z,80.23
2022-11-02T05:52:56.163Z,80.07
2022-11-02T05:55:23.688Z,80.28
2022-11-02T05:57:53.722Z,79.99
2022-11-02T06:00:21.670Z,80.10
2022-11-02T06:02:49.191Z,80.02
2022-11-02T06:05:16.348Z,79.99
2022-11-02T06:07:43.069Z,79.90
2022-11-02T06:10:10.011Z,79.80
2022-11-02T06:12:39.412Z,79.94
2022-11-02T06:15:06.729Z,79.82
2022-11-02T06:17:40.607Z,79.86
2022-11-02T06:20:08.690Z,79.91
2022-11-02T06:22:40.304Z,80.05
2022-11-02T06:25:10.358Z,79.87
2022-11-02T06:27:57.856Z,79.76
2022-11-02T06:30:29.188Z,79.92
2022-11-02T06:32:56.328Z,79.60
2022-11-02T06:35:23.705Z,79.71
2022-11-02T06:38:01.105Z,79.91
2022-11-02T06:40:28.406Z,79.70
2022-11-02T06:43:17.027Z,79.40
2022-11-02T06:45:47.976Z,79.78
2022-11-02T06:48:15.316Z,79.70
2022-11-02T06:50:48.017Z,79.54
2022-11-02T06:53:21.160Z,79.74
2022-11-02T06:56:00.334Z,79.64
2022-11-02T06:58:31.144Z,79.58
2022-11-02T07:01:03.884Z,79.58
2022-11-02T07:03:34.640Z,79.54
2022-11-02T07:06:11.242Z,79.60
2022-11-02T07:08:40.889Z,79.68
2022-11-02T07:11:33.488Z,79.86
2022-11-02T07:17:32.034Z,79.81
2022-11-02T07:20:16.897Z,79.91
2022-11-02T07:23:05.575Z,79.36
2022-11-02T07:25:33.618Z,79.66
2022-11-02T07:28:01.577Z,79.50
2022-11-02T07:30:29.504Z,79.61
2022-11-02T07:32:56.520Z,79.78
2022-11-02T07:35:26.651Z,79.68
2022-11-02T07:38:01.834Z,79.64
2022-11-02T07:40:29.780Z,79.89
2022-11-02T07:42:57.897Z,79.46
2022-11-02T07:45:37.770Z,79.57
2022-11-02T07:48:04.658Z,79.53
2022-11-02T07:50:32.023Z,79.63
2022-11-02T07:53:00.821Z,79.45
2022-11-02T07:55:29.551Z,79.10
2022-11-02T07:58:04.200Z,79.27
2022-11-02T08:00:34.275Z,79.01
2022-11-02T08:03:02.642Z,78.76
2022-11-02T08:05:40.565Z,78.62
2022-11-02T08:08:11.709Z,78.25
2022-11-02T08:10:40.337Z,78.37
2022-11-02T08:13:10.024Z,78.10
2022-11-02T08:15:37.651Z,78.15
2022-11-02T08:18:07.171Z,78.07
2022-11-02T08:20:35.182Z,78.12
2022-11-02T08:23:02.483Z,77.91
2022-11-02T08:25:29.326Z,77.80
2022-11-02T08:27:58.613Z,77.65
2022-11-02T08:30:30.223Z,77.19
2022-11-02T08:33:08.876Z,77.06
2022-11-02T08:35:37.778Z,77.03
2022-11-02T08:38:05.759Z,77.20
2022-11-02T08:40:32.931Z,76.68
2022-11-02T08:43:01.256Z,76.85
2022-11-02T08:45:32.309Z,76.67
2022-11-02T08:48:07.367Z,76.58
2022-11-02T08:50:39.067Z,76.48
2022-11-02T08:53:06.295Z,76.36
2022-11-02T08:55:33.355Z,76.29
2022-11-02T08:58:03.012Z,76.10
2022-11-02T09:00:36.217Z,76.24
2022-11-02T09:03:11.297Z,76.27
2022-11-02T09:05:40.974Z,75.97
2022-11-02T09:08:11.734Z,75.94
2022-11-02T09:10:38.501Z,76.04
2022-11-02T09:13:07.768Z,76.28
2022-11-02T09:15:36.663Z,76.20
2022-11-02T09:18:20.279Z,76.26
2022-11-02T09:20:48.683Z,76.12
2022-11-02T09:23:17.287Z,76.13
2022-11-02T09:25:44.448Z,75.84
2022-11-02T09:28:11.551Z,76.08
2022-11-02T09:30:40.079Z,75.68
2022-11-02T09:33:11.697Z,75.89
2022-11-02T09:35:41.517Z,75.33
2022-11-02T09:38:08.218Z,75.55
2022-11-02T09:41:25.159Z,75.04
2022-11-02T09:44:06.279Z,75.34
2022-11-02T09:46:40.580Z,75.14
2022-11-02T09:49:20.957Z,75.00
2022-11-02T09:51:49.267Z,74.86
2022-11-02T09:54:26.040Z,74.35
2022-11-02T09:56:58.906Z,74.32
2022-11-02T09:59:26.650Z,73.98
2022-11-02T10:02:15.445Z,74.16
2022-11-02T10:05:07.261Z,73.58
2022-11-02T10:07:52.705Z,73.46
2022-11-02T10:11:10.949Z,73.50
2022-11-02T10:13:54.162Z,73.20
2022-11-02T10:16:39.561Z,72.86
2022-11-02T10:19:12.462Z,72.44
2022-11-02T10:21:39.690Z,72.23
2022-11-02T10:24:18.706Z,71.68
2022-11-02T10:26:45.379Z,71.55
2022-11-02T10:29:30.322Z,71.55
2022-11-02T10:31:57.056Z,71.13
2022-11-02T10:34:27.938Z,70.50
2022-11-02T10:37:19.541Z,69.75
2022-11-02T10:39:59.606Z,69.45
2022-11-02T10:43:04.077Z,68.89
2022-11-02T10:45:44.367Z,68.84
2022-11-02T10:48:40.478Z,68.68
2022-11-02T10:51:09.768Z,67.99
2022-11-02T10:53:41.845Z,67.87
2022-11-02T10:56:21.606Z,67.28
2022-11-02T10:58:54.277Z,67.01
2022-11-02T11:01:21.042Z,66.80
2022-11-02T11:03:57.976Z,66.35
2022-11-02T11:06:44.935Z,65.96
2022-11-02T11:09:20.486Z,66.00
2022-11-02T11:12:02.313Z,65.18
2022-11-02T11:20:35.773Z,64.39
2022-11-02T11:23:22.111Z,63.87
2022-11-02T11:25:57.693Z,64.30
2022-11-02T11:29:57.412Z,63.90
2022-11-02T11:32:30.146Z,64.21
2022-11-02T11:35:03.941Z,64.00
2022-11-02T11:37:31.328Z,63.63
2022-11-02T11:40:04.695Z,64.04
2022-11-02T11:42:34.825Z,63.97
2022-11-02T11:45:05.904Z,64.03
2022-11-02T11:47:36.468Z,64.06
2022-11-02T11:50:16.273Z,64.09
2022-11-02T11:52:45.055Z,64.10
2022-11-02T11:55:27.015Z,64.16
2022-11-02T11:58:20.363Z,64.04
2022-11-02T12:01:09.351Z,63.95
2022-11-02T12:03:57.329Z,64.46
2022-11-02T12:06:31.649Z,64.64
2022-11-02T12:09:05.974Z,64.17
2022-11-02T12:11:48.044Z,64.44
2022-11-02T12:14:27.321Z,64.18
2022-11-02T12:17:06.731Z,64.29
2022-11-02T12:19:45.534Z,64.32
2022-11-02T12:22:30.292Z,64.45
2022-11-02T12:25:05.930Z,64.18
2022-11-02T12:27:41.749Z,64.41
2022-11-02T12:30:22.143Z,64.58
2022-11-02T12:32:55.706Z,64.32
2022-11-02T12:35:44.648Z,64.57
2022-11-02T12:38:29.797Z,64.29
2022-11-02T12:41:18.544Z,64.16
2022-11-02T12:43:47.462Z,64.30
2022-11-02T12:46:22.998Z,63.94
2022-11-02T12:49:15.419Z,63.56
2022-11-02T12:51:51.670Z,63.56
2022-11-02T12:54:22.201Z,63.10
2022-11-02T12:56:50.840Z,63.02
2022-11-02T12:59:29.151Z,62.71
2022-11-02T13:02:10.403Z,63.10
2022-11-02T13:04:52.899Z,63.12
2022-11-02T13:07:26.190Z,62.64
2022-11-02T13:09:59.605Z,62.29
2022-11-02T13:12:27.047Z,61.68
2022-11-02T13:14:56.119Z,61.34
2022-11-02T13:17:27.567Z,60.93
2022-11-02T13:19:59.591Z,60.55
2022-11-02T13:22:31.121Z,60.08
2022-11-02T13:25:05.289Z,58.24
2022-11-02T13:27:37.189Z,57.58
2022-11-02T13:30:14.434Z,56.25
2022-11-02T13:32:44.529Z,55.76
2022-11-02T13:35:17.062Z,55.88
2022-11-02T13:37:48.498Z,56.17
2022-11-02T13:40:22.664Z,56.56
2022-11-02T13:42:58.185Z,56.30
2022-11-02T13:48:07.153Z,55.44
2022-11-02T13:50:39.950Z,55.62
2022-11-02T13:53:08.961Z,55.70
2022-11-02T13:55:48.135Z,55.46
2022-11-02T13:58:22.851Z,55.37
2022-11-02T14:00:49.869Z,55.35
2022-11-02T14:03:22.893Z,55.19
2022-11-02T14:05:53.874Z,54.60
2022-11-02T14:08:36.440Z,54.96
2022-11-02T14:11:24.892Z,54.80
2022-11-02T14:13:54.972Z,54.77
2022-11-02T14:16:46.161Z,54.55
2022-11-02T14:19:34.408Z,55.03
2022-11-02T14:22:01.038Z,55.19
2022-11-02T14:24:33.974Z,55.00
2022-11-02T14:27:02.479Z,55.25
2022-11-02T14:29:51.625Z,55.51
2022-11-02T14:32:21.344Z,55.43
2022-11-02T14:35:22.285Z,55.47
2022-11-02T14:38:01.231Z,55.49
2022-11-02T14:40:31.961Z,55.87
2022-11-02T14:43:03.141Z,55.68
2022-11-02T14:45:41.352Z,56.00
2022-11-02T14:48:14.298Z,55.91
2022-11-02T14:50:41.025Z,56.30
2022-11-02T14:53:09.906Z,56.63
2022-11-02T14:55:37.581Z,56.59
2022-11-02T14:58:11.025Z,56.74
2022-11-02T15:00:47.428Z,56.76
2022-11-02T15:03:34.494Z,57.04
2022-11-02T15:06:22.808Z,56.91
2022-11-02T15:08:59.579Z,56.71
2022-11-02T15:11:45.163Z,56.17
2022-11-02T15:14:37.971Z,56.12
2022-11-02T15:17:10.446Z,56.23
2022-11-02T15:19:47.237Z,55.76
2022-11-02T15:23:08.794Z,56.06
2022-11-02T15:25:37.754Z,56.39
2022-11-02T15:28:08.185Z,56.83
2022-11-02T15:30:42.582Z,56.58
2022-11-02T15:33:17.299Z,56.67
2022-11-02T15:35:44.434Z,56.78
2022-11-02T15:38:18.550Z,56.93
2022-11-02T15:40:49.316Z,56.72
2022-11-02T15:43:29.663Z,57.09
2022-11-02T15:46:08.262Z,56.91
2022-11-02T15:48:51.385Z,56.88
2022-11-02T15:51:25.011Z,57.02
2022-11-02T15:53:54.723Z,56.98
2022-11-02T15:56:43.171Z,57.27
2022-11-02T15:59:44.587Z,57.49
2022-11-02T16:09:44.573Z,57.85
2022-11-02T16:15:35.471Z,57.70
2022-11-02T16:23:02.718Z,57.88
2022-11-02T16:25:46.577Z,58.33
2022-11-02T16:28:33.275Z,58.13
2022-11-02T16:31:18.512Z,58.28
2022-11-02T16:33:50.547Z,58.61
2022-11-02T16:36:20.418Z,58.45
2022-11-02T16:38:57.731Z,58.40
2022-11-02T16:41:29.957Z,58.83
2022-11-02T16:43:58.281Z,58.68
2022-11-02T16:46:31.118Z,58.91
2022-11-02T16:49:07.796Z,58.91
2022-11-02T16:51:37.532Z,58.77
2022-11-02T16:54:25.479Z,59.22
2022-11-02T16:56:53.068Z,59.35
2022-11-02T16:59:21.494Z,59.31
2022-11-02T17:01:48.397Z,59.16
2022-11-02T17:04:25.140Z,59.48
2022-11-02T17:06:54.969Z,59.22
2022-11-02T17:09:29.840Z,59.59
2022-11-02T17:11:59.306Z,59.63
2022-11-02T17:14:27.000Z,59.70
2022-11-02T17:16:59.803Z,59.71
2022-11-02T17:19:41.489Z,59.86
2022-11-02T17:22:15.885Z,59.75
2022-11-02T17:24:42.865Z,60.11
2022-11-02T17:27:27.384Z,60.15
2022-11-02T17:29:57.521Z,59.87
2022-11-02T17:32:24.325Z,60.36
2022-11-02T17:34:56.622Z,60.40
2022-11-02T17:37:30.698Z,60.20
2022-11-02T17:40:00.764Z,60.34
2022-11-02T17:42:46.620Z,60.68
2022-11-02T17:45:30.093Z,60.40
2022-11-02T17:47:58.249Z,60.57
2022-11-02T17:50:26.372Z,60.69
2022-11-02T17:52:53.364Z,60.83
2022-11-02T17:55:27.283Z,60.96
2022-11-02T17:57:55.461Z,60.91
2022-11-02T18:00:23.365Z,60.59
2022-11-02T18:02:52.383Z,60.84
2022-11-02T18:05:23.899Z,61.00
2022-11-02T18:07:51.119Z,60.98
2022-11-02T18:10:19.130Z,61.09
2022-11-02T18:12:45.918Z,61.22
2022-11-02T18:15:17.549Z,61.39
2022-11-02T18:17:44.256Z,61.43
2022-11-02T18:20:12.068Z,61.46
2022-11-02T18:22:39.008Z,61.61
2022-11-02T18:25:11.370Z,61.44
2022-11-02T18:27:38.883Z,61.75
2022-11-02T18:30:07.376Z,61.72
2022-11-02T18:32:38.230Z,61.71
2022-11-02T18:35:05.426Z,61.64
2022-11-02T18:37:32.700Z,61.68
2022-11-02T18:39:59.491Z,62.06
2022-11-02T18:42:26.242Z,61.91
2022-11-02T18:44:52.961Z,61.90
2022-11-02T18:47:19.724Z,62.39
2022-11-02T18:49:46.420Z,62.86
2022-11-02T18:52:18.332Z,62.96
2022-11-02T18:54:48.911Z,62.85
2022-11-02T18:57:15.821Z,62.90
2022-11-02T18:59:42.739Z,62.72
2022-11-02T19:02:10.110Z,62.79
2022-11-02T19:04:36.963Z,62.83
2022-11-02T19:07:22.506Z,62.77
2022-11-02T19:09:49.199Z,62.63
2022-11-02T19:12:19.047Z,62.79
2022-11-02T19:14:47.149Z,62.61
2022-11-02T19:17:14.963Z,62.66
2022-11-02T19:19:43.380Z,62.53
2022-11-02T19:22:13.794Z,62.54
2022-11-02T19:24:40.993Z,62.65
2022-11-02T19:27:12.546Z,62.84
2022-11-02T19:29:39.210Z,63.10
2022-11-02T19:32:05.893Z,63.03
2022-11-02T19:34:33.881Z,63.23
2022-11-02T19:37:00.862Z,63.27
2022-11-02T19:39:27.685Z,63.43
2022-11-02T19:41:54.493Z,63.76
2022-11-02T19:44:21.511Z,63.44
2022-11-02T19:46:48.193Z,63.51
2022-11-02T19:49:14.930Z,63.43
2022-11-02T19:51:41.646Z,63.54
2022-11-02T19:54:10.837Z,63.48
2022-11-02T19:56:37.795Z,63.43
2022-11-02T19:59:05.651Z,63.66
2022-11-02T20:01:42.535Z,63.44
2022-11-02T20:04:10.262Z,63.66
2022-11-02T20:06:39.520Z,63.68
2022-11-02T20:09:08.607Z,63.94
2022-11-02T20:11:36.294Z,64.13
2022-11-02T20:14:05.274Z,64.02
2022-11-02T20:16:31.990Z,63.95
2022-11-02T20:18:59.471Z,64.16
2022-11-02T20:21:35.463Z,64.26
2022-11-02T20:24:05.349Z,64.39
2022-11-02T20:26:34.798Z,64.53
2022-11-02T20:29:03.566Z,64.94
2022-11-02T20:31:36.175Z,65.22
2022-11-02T20:34:04.836Z,65.20
2022-11-02T20:36:31.646Z,65.02
2022-11-02T20:38:58.713Z,65.36
2022-11-02T20:41:26.215Z,65.48
2022-11-02T20:43:55.603Z,65.76
2022-11-02T20:46:41.545Z,65.51
2022-11-02T20:49:20.906Z,65.55
2022-11-02T20:51:52.959Z,65.83
2022-11-02T20:54:20.955Z,65.56
2022-11-02T20:56:48.727Z,65.71
2022-11-02T20:59:15.572Z,66.07
2022-11-02T21:01:42.373Z,65.91
2022-11-02T21:04:09.379Z,65.62
2022-11-02T21:06:36.082Z,65.79
2022-11-02T21:09:09.076Z,65.56
2022-11-02T21:11:57.366Z,65.13
2022-11-02T21:14:24.088Z,65.53
2022-11-02T21:16:50.758Z,65.26
2022-11-02T21:19:17.484Z,65.37
2022-11-02T21:21:45.138Z,65.48
2022-11-02T21:24:12.212Z,65.21
2022-11-02T21:26:39.020Z,65.43
2022-11-02T21:29:05.912Z,65.50
2022-11-02T21:31:32.673Z,65.38
2022-11-02T21:33:59.339Z,65.66
2022-11-02T21:36:26.063Z,65.79
2022-11-02T21:38:52.869Z,65.78
2022-11-02T21:41:21.626Z,65.49
2022-11-02T21:43:51.895Z,66.06
2022-11-02T21:46:20.030Z,66.30
2022-11-02T21:48:47.129Z,66.91
2022-11-02T21:51:16.284Z,66.31
2022-11-02T21:53:44.078Z,66.66
2022-11-02T21:56:13.090Z,66.75
2022-11-02T21:58:44.716Z,66.82
2022-11-02T22:01:39.832Z,66.84
2022-11-02T22:04:07.406Z,66.74
2022-11-02T22:06:35.043Z,66.82
2022-11-02T22:09:02.800Z,66.92
2022-11-02T22:11:29.559Z,66.80
2022-11-02T22:13:58.243Z,67.35
2022-11-02T22:16:31.855Z,66.82
2022-11-02T22:19:00.164Z,66.92
2022-11-02T22:21:29.635Z,67.16
2022-11-02T22:23:56.843Z,67.09
2022-11-02T22:26:28.645Z,66.75
2022-11-02T22:28:57.792Z,67.28
2022-11-02T22:31:26.890Z,66.97
2022-11-02T22:33:55.839Z,67.28
2022-11-02T22:36:27.535Z,67.08
2022-11-02T22:38:55.332Z,67.52
2022-11-02T22:41:29.381Z,67.05
2022-11-02T22:44:01.778Z,67.34
2022-11-02T22:46:30.161Z,67.38
2022-11-02T22:48:58.665Z,67.26
2022-11-02T22:51:27.868Z,67.09
2022-11-02T22:53:54.764Z,67.56
2022-11-02T22:56:23.377Z,67.41
2022-11-02T22:58:50.621Z,67.39
2022-11-02T23:01:21.034Z,67.16
2022-11-02T23:03:48.511Z,67.26
2022-11-02T23:06:16.428Z,67.66
2022-11-02T23:08:45.872Z,67.72
2022-11-02T23:11:22.636Z,67.70
2022-11-02T23:13:52.099Z,67.79
2022-11-02T23:16:22.994Z,67.62
2022-11-02T23:19:12.530Z,67.92
2022-11-02T23:21:41.053Z,67.82
2022-11-02T23:24:27.080Z,67.90
2022-11-02T23:26:54.364Z,67.66
2022-11-02T23:29:39.805Z,67.96
2022-11-02T23:32:27.963Z,68.10
2022-11-02T23:35:14.457Z,67.98
2022-11-02T23:37:41.644Z,68.02
2022-11-02T23:40:09.209Z,68.00
2022-11-02T23:42:36.049Z,67.95
2022-11-02T23:45:03.091Z,68.00
2022-11-02T23:47:49.314Z,68.02
2022-11-02T23:50:36.174Z,68.32
2022-11-02T23:53:22.719Z,68.33
2022-11-02T23:56:10.902Z,67.91
2022-11-02T23:58:38.045Z,68.18
